createdAt,value
2019-03-30T00:00:21.022Z,10.75
2019-03-30T00:02:50.355Z,11.18
2019-03-30T00:05:19.615Z,11.85
2019-03-30T00:07:48.880Z,13.62
2019-03-30T00:10:18.145Z,10.03
2019-03-30T00:12:48.473Z,11.05
2019-03-30T00:15:17.746Z,7.85
2019-03-30T00:17:47.194Z,9.35
2019-03-30T00:20:16.538Z,9.08
2019-03-30T00:22:45.830Z,10.32
2019-03-30T00:25:16.067Z,9.80
2019-03-30T00:27:45.331Z,11.18
2019-03-30T00:30:14.666Z,10.28
2019-03-30T00:32:44.198Z,10.32
2019-03-30T00:35:13.467Z,8.70
2019-03-30T00:37:43.692Z,10.68
2019-03-30T00:40:13.231Z,8.93
2019-03-30T00:42:43.558Z,10.80
2019-03-30T00:45:13.271Z,12.30
2019-03-30T00:47:42.534Z,7.80
2019-03-30T00:50:12.030Z,9.63
2019-03-30T00:52:41.295Z,10.20
2019-03-30T00:55:11.089Z,9.88
2019-03-30T00:57:40.594Z,9.88
2019-03-30T01:00:10.998Z,9.23
2019-03-30T04:01:42.443Z,13.25
2019-03-30T04:04:14.749Z,10.93
2019-03-30T04:06:45.580Z,12.70
2019-03-30T04:09:16.555Z,10.08
2019-03-30T04:11:47.363Z,9.63
2019-03-30T04:14:19.703Z,12.23
2019-03-30T04:16:48.962Z,10.13
2019-03-30T04:19:18.232Z,11.38
2019-03-30T04:21:47.486Z,10.45
2019-03-30T04:24:16.747Z,9.00
2019-03-30T04:26:46.341Z,10.45
2019-03-30T04:29:15.614Z,12.33
2019-03-30T04:31:44.874Z,11.93
2019-03-30T04:34:14.162Z,12.60
2019-03-30T04:36:43.421Z,12.40
2019-03-30T04:39:12.672Z,11.20
2019-03-30T04:41:41.923Z,9.65
2019-03-30T04:44:11.190Z,15.15
2019-03-30T04:46:40.446Z,8.98
2019-03-30T04:49:09.711Z,11.93
2019-03-30T04:51:38.973Z,11.43
2019-03-30T04:54:08.222Z,9.30
2019-03-30T04:56:37.489Z,11.60
2019-03-30T04:59:06.747Z,11.05
2019-03-30T05:01:36.014Z,11.08
2019-03-30T05:04:05.298Z,13.48
2019-03-30T05:06:34.556Z,11.10
2019-03-30T05:09:05.118Z,10.15
2019-03-30T05:11:34.619Z,12.75
2019-03-30T05:14:03.886Z,13.03
2019-03-30T05:16:33.138Z,12.10
2019-03-30T05:19:02.410Z,14.65
2019-03-30T05:21:31.670Z,13.60
2019-03-30T05:24:00.948Z,16.02
2019-03-30T05:26:30.214Z,15.43
2019-03-30T05:28:59.507Z,13.25
2019-03-30T05:31:28.831Z,12.65
2019-03-30T05:33:59.334Z,13.20
2019-03-30T05:36:28.622Z,13.78
2019-03-30T05:38:57.882Z,12.15
2019-03-30T05:41:27.135Z,11.45
2019-03-30T05:43:56.419Z,12.05
2019-03-30T05:46:25.671Z,11.80
2019-03-30T05:48:54.937Z,11.57
2019-03-30T05:51:24.207Z,11.15
2019-03-30T05:53:53.743Z,10.25
2019-03-30T05:56:23.003Z,12.45
2019-03-30T05:58:52.275Z,11.50
2019-03-30T06:01:21.531Z,12.33
2019-03-30T06:03:50.875Z,12.85
2019-03-30T06:06:20.154Z,11.55
2019-03-30T06:08:49.469Z,10.80
2019-03-30T06:11:18.734Z,11.85
2019-03-30T06:13:47.995Z,12.95
2019-03-30T06:16:17.263Z,12.63
2019-03-30T06:18:47.586Z,11.55
2019-03-30T06:21:16.860Z,13.88
2019-03-30T06:23:48.615Z,16.17
2019-03-30T06:26:17.359Z,12.25
2019-03-30T06:28:46.627Z,15.58
2019-03-30T06:31:16.138Z,13.72
2019-03-30T06:33:45.648Z,14.90
2019-03-30T06:36:14.914Z,15.58
2019-03-30T06:38:44.454Z,16.93
2019-03-30T06:41:13.730Z,17.27
2019-03-30T06:43:43.263Z,16.42
2019-03-30T06:46:12.534Z,17.92
2019-03-30T06:48:41.790Z,16.07
2019-03-30T06:51:11.051Z,11.90
2019-03-30T06:53:40.328Z,11.95
2019-03-30T06:56:09.578Z,12.90
2019-03-30T06:58:38.846Z,17.27
2019-03-30T07:01:08.274Z,15.65
2019-03-30T07:03:37.602Z,16.48
2019-03-30T07:06:07.236Z,15.93
2019-03-30T07:08:37.368Z,19.30
2019-03-30T07:11:20.694Z,18.60
2019-03-30T07:13:41.070Z,17.67
2019-03-30T07:16:10.611Z,20.97
2019-03-30T07:18:42.178Z,20.57
2019-03-30T07:21:11.450Z,21.05
2019-03-30T07:23:40.702Z,22.35
2019-03-30T07:26:09.970Z,21.93
2019-03-30T07:28:39.498Z,21.40
2019-03-30T07:31:08.766Z,19.15
2019-03-30T07:33:38.035Z,20.20
2019-03-30T07:36:07.603Z,19.45
2019-03-30T07:38:37.942Z,19.50
2019-03-30T07:41:07.210Z,18.85
2019-03-30T07:43:36.766Z,20.68
2019-03-30T07:46:06.021Z,17.73
2019-03-30T07:48:35.278Z,19.27
2019-03-30T07:51:04.560Z,19.57
2019-03-30T07:53:43.864Z,19.27
2019-03-30T07:56:08.555Z,19.48
2019-03-30T07:58:37.087Z,15.80
2019-03-30T08:01:06.331Z,18.52
2019-03-30T08:03:35.610Z,19.55
2019-03-30T08:06:04.871Z,19.12
2019-03-30T08:08:34.145Z,19.87
2019-03-30T08:11:03.491Z,19.52
2019-03-30T08:13:32.757Z,19.75
2019-03-30T08:16:02.387Z,19.57
2019-03-30T08:18:31.643Z,19.73
2019-03-30T08:21:00.914Z,20.10
2019-03-30T08:23:40.223Z,17.92
2019-03-30T08:26:01.469Z,19.27
2019-03-30T08:28:30.731Z,18.10
2019-03-30T08:30:59.999Z,18.92
2019-03-30T08:33:29.278Z,16.55
2019-03-30T08:35:58.555Z,21.93
2019-03-30T08:38:27.849Z,17.57
2019-03-30T08:40:57.186Z,20.02
2019-03-30T08:43:26.610Z,18.35
2019-03-30T08:45:55.891Z,22.07
2019-03-30T08:48:25.171Z,19.20
2019-03-30T08:50:54.750Z,19.50
2019-03-30T08:53:24.026Z,21.62
2019-03-30T08:55:53.298Z,18.12
2019-03-30T08:58:22.572Z,19.98
2019-03-30T09:00:51.846Z,15.70
2019-03-30T09:03:21.128Z,21.68
2019-03-30T09:05:50.663Z,21.20
2019-03-30T09:08:20.270Z,17.77
2019-03-30T09:10:49.883Z,19.48
2019-03-30T09:13:19.159Z,20.70
2019-03-30T09:15:48.427Z,21.02
2019-03-30T09:18:17.711Z,20.80
2019-03-30T09:20:47.395Z,22.60
2019-03-30T09:23:16.666Z,20.15
2019-03-30T09:25:46.206Z,23.45
2019-03-30T09:28:15.813Z,20.82
2019-03-30T09:30:45.082Z,22.73
2019-03-30T09:33:15.371Z,21.00
2019-03-30T09:35:44.674Z,21.68
2019-03-30T09:38:14.976Z,23.83
2019-03-30T09:40:44.399Z,20.70
2019-03-30T09:43:13.674Z,20.57
2019-03-30T09:45:42.955Z,21.80
2019-03-30T09:48:12.482Z,20.15
2019-03-30T09:50:41.830Z,18.80
2019-03-30T09:53:11.098Z,21.17
2019-03-30T09:55:40.371Z,23.00
2019-03-30T09:58:09.891Z,19.17
2019-03-30T10:00:39.163Z,18.20
2019-03-30T10:03:08.435Z,20.48
2019-03-30T10:05:37.706Z,19.25
2019-03-30T10:08:07.951Z,20.85
2019-03-30T10:10:37.222Z,23.27
2019-03-30T10:13:06.503Z,24.20
2019-03-30T10:15:35.770Z,23.02
2019-03-30T10:18:05.046Z,24.07
2019-03-30T10:20:35.379Z,23.22
2019-03-30T10:23:04.666Z,25.05
2019-03-30T10:25:33.927Z,27.60
2019-03-30T10:28:03.202Z,26.25
2019-03-30T10:30:32.490Z,25.72
2019-03-30T10:33:01.784Z,26.68
2019-03-30T10:35:31.046Z,26.45
2019-03-30T10:38:00.318Z,29.20
2019-03-30T10:40:29.593Z,23.27
2019-03-30T10:42:58.863Z,24.45
2019-03-30T10:45:28.138Z,25.97
2019-03-30T10:47:57.402Z,23.20
2019-03-30T10:50:26.678Z,27.55
2019-03-30T10:52:55.975Z,28.65
2019-03-30T10:55:25.258Z,25.17
2019-03-30T10:57:58.484Z,25.25
2019-03-30T11:00:35.448Z,21.97
2019-03-30T11:03:04.902Z,25.17
2019-03-30T11:05:34.238Z,27.85
2019-03-30T11:08:03.750Z,27.77
2019-03-30T11:10:33.022Z,21.12
2019-03-30T11:13:02.301Z,23.98
2019-03-30T11:15:34.014Z,21.65
2019-03-30T11:18:02.558Z,19.90
2019-03-30T11:20:31.830Z,22.95
2019-03-30T11:23:01.107Z,23.07
2019-03-30T11:25:30.374Z,21.68
2019-03-30T11:27:59.647Z,21.90
2019-03-30T11:30:28.918Z,22.37
2019-03-30T11:32:58.283Z,21.55
2019-03-30T11:35:27.550Z,22.65
2019-03-30T11:37:57.810Z,19.37
2019-03-30T11:40:27.076Z,20.55
2019-03-30T11:42:56.634Z,19.05
2019-03-30T11:45:26.248Z,17.50
2019-03-30T11:47:55.515Z,21.02
2019-03-30T11:50:25.055Z,17.80
2019-03-30T11:52:54.558Z,21.12
2019-03-30T11:55:23.834Z,19.70
2019-03-30T11:57:53.107Z,21.12
2019-03-30T12:00:22.401Z,17.92
2019-03-30T12:02:51.662Z,17.65
2019-03-30T12:05:20.939Z,18.52
2019-03-30T12:07:50.205Z,16.30
2019-03-30T12:10:19.478Z,19.55
2019-03-30T12:12:48.747Z,19.23
2019-03-30T12:15:18.026Z,18.87
2019-03-30T12:17:47.591Z,19.75
2019-03-30T12:20:16.870Z,16.12
2019-03-30T12:22:46.892Z,18.90
2019-03-30T12:25:16.527Z,17.15
2019-03-30T12:27:45.803Z,18.80
2019-03-30T12:30:15.406Z,14.75
2019-03-30T12:32:44.714Z,19.50
2019-03-30T12:35:14.743Z,17.25
2019-03-30T12:37:44.342Z,14.90
2019-03-30T12:40:13.879Z,14.60
2019-03-30T12:42:43.150Z,12.98
2019-03-30T12:45:14.026Z,10.43
2019-03-30T12:47:55.460Z,12.65
2019-03-30T12:50:27.578Z,13.78
2019-03-30T12:52:56.847Z,15.28
2019-03-30T12:55:26.361Z,22.32
2019-03-30T12:57:55.971Z,13.45
2019-03-30T13:00:25.238Z,12.60
2019-03-30T13:02:54.504Z,8.20
2019-03-30T13:05:23.817Z,5.95
2019-03-30T13:07:53.377Z,12.47
2019-03-30T13:10:22.660Z,12.05
2019-03-30T13:12:51.934Z,6.65
2019-03-30T13:15:21.219Z,6.03
2019-03-30T13:17:50.521Z,9.80
2019-03-30T13:20:19.788Z,12.93
2019-03-30T13:22:49.061Z,14.63
2019-03-30T13:25:18.368Z,8.80
2019-03-30T13:27:47.644Z,6.97
2019-03-30T13:30:17.440Z,6.20
2019-03-30T13:32:47.112Z,8.53
2019-03-30T13:35:16.404Z,8.93
2019-03-30T13:37:45.696Z,12.20
2019-03-30T13:40:15.153Z,11.78
2019-03-30T13:42:44.419Z,7.75
2019-03-30T13:45:14.443Z,9.03
2019-03-30T13:47:44.047Z,10.60
2019-03-30T13:50:14.206Z,11.05
2019-03-30T13:52:43.551Z,13.45
2019-03-30T13:55:13.694Z,12.60
2019-03-30T13:57:42.962Z,8.85
2019-03-30T14:00:13.767Z,10.95
2019-03-30T14:02:44.201Z,13.60
2019-03-30T14:05:14.751Z,10.08
2019-03-30T14:07:45.715Z,12.43
2019-03-30T14:10:15.050Z,13.45
2019-03-30T14:12:44.313Z,11.43
2019-03-30T14:15:14.654Z,10.15
2019-03-30T14:17:43.960Z,11.20
2019-03-30T14:20:13.260Z,11.33
2019-03-30T14:22:42.540Z,11.57
2019-03-30T14:25:11.938Z,16.48
2019-03-30T14:27:41.204Z,11.70
2019-03-30T14:30:12.279Z,13.10
2019-03-30T14:32:41.558Z,12.98
2019-03-30T14:35:12.913Z,12.23
2019-03-30T14:37:42.162Z,10.88
2019-03-30T14:40:11.981Z,10.75
2019-03-30T14:42:41.241Z,9.20
2019-03-30T14:45:11.300Z,12.40
2019-03-30T14:47:40.571Z,10.35
2019-03-30T14:50:10.477Z,9.15
2019-03-30T14:52:39.742Z,9.70
2019-03-30T14:55:09.274Z,12.55
2019-03-30T14:57:38.827Z,10.75
2019-03-30T15:00:11.703Z,8.75
2019-03-30T15:02:41.032Z,8.80
2019-03-30T15:05:10.459Z,9.38
2019-03-30T15:07:39.731Z,9.85
2019-03-30T15:10:11.008Z,9.33
2019-03-30T15:12:40.270Z,6.42
2019-03-30T15:15:11.086Z,11.08
2019-03-30T15:17:41.181Z,9.48
2019-03-30T15:20:11.542Z,9.80
2019-03-30T15:22:40.810Z,9.00
2019-03-30T15:25:10.915Z,9.13
2019-03-30T15:27:40.182Z,10.15
2019-03-30T15:30:11.346Z,11.00
2019-03-30T15:32:40.622Z,8.83
2019-03-30T15:35:10.323Z,7.90
2019-03-30T15:37:39.582Z,8.70
2019-03-30T15:40:09.106Z,8.28
2019-03-30T15:42:40.410Z,8.70
2019-03-30T15:45:10.928Z,8.68
2019-03-30T15:47:40.186Z,12.55
2019-03-30T15:50:10.002Z,7.95
2019-03-30T15:52:39.262Z,9.18
2019-03-30T15:55:09.074Z,7.75
2019-03-30T15:57:38.339Z,9.85
2019-03-30T16:00:10.314Z,8.58
2019-03-30T16:02:39.654Z,10.95
2019-03-30T16:05:09.252Z,9.63
2019-03-30T16:07:38.691Z,8.43
2019-03-30T16:10:08.490Z,8.20
2019-03-30T16:12:37.762Z,9.28
2019-03-30T16:15:08.376Z,8.88
2019-03-30T16:17:37.646Z,11.83
2019-03-30T16:20:07.074Z,9.90
2019-03-30T16:22:36.424Z,10.58
2019-03-30T16:25:07.527Z,7.60
2019-03-30T16:27:39.194Z,10.03
2019-03-30T16:30:08.781Z,11.10
2019-03-30T16:32:38.178Z,8.05
2019-03-30T16:35:07.718Z,7.90
2019-03-30T16:37:36.979Z,8.60
2019-03-30T16:40:07.132Z,11.83
2019-03-30T16:42:36.453Z,8.28
2019-03-30T16:45:07.665Z,7.87
2019-03-30T16:47:36.930Z,9.15
2019-03-30T16:50:08.810Z,9.10
2019-03-30T16:52:40.966Z,10.68
2019-03-30T16:55:09.103Z,9.48
2019-03-30T16:57:43.579Z,9.73
2019-03-30T17:00:09.679Z,12.03
2019-03-30T17:02:39.007Z,7.28
2019-03-30T17:05:09.308Z,9.03
2019-03-30T17:07:39.415Z,8.03
2019-03-30T17:10:10.014Z,8.38
2019-03-30T17:12:40.500Z,5.45
2019-03-30T17:15:09.836Z,8.88
2019-03-30T17:17:40.186Z,6.15
2019-03-30T17:20:09.993Z,9.50
2019-03-30T17:22:39.259Z,6.85
2019-03-30T17:25:08.761Z,8.35
2019-03-30T17:27:38.299Z,9.73
2019-03-30T17:30:08.803Z,11.30
2019-03-30T17:32:38.263Z,7.55
2019-03-30T17:35:08.168Z,10.40
2019-03-30T17:37:37.477Z,9.73
2019-03-30T17:40:08.409Z,8.23
2019-03-30T17:42:38.987Z,7.72
2019-03-30T17:45:09.876Z,6.65
2019-03-30T17:47:39.162Z,9.95
2019-03-30T17:50:09.171Z,10.10
2019-03-30T17:52:38.471Z,7.72
2019-03-30T17:55:32.714Z,7.78
2019-03-30T17:58:12.297Z,8.33
2019-03-30T18:00:31.391Z,6.60
2019-03-30T18:03:16.415Z,7.20
2019-03-30T18:05:42.570Z,8.18
2019-03-30T18:08:11.841Z,10.50
2019-03-30T18:10:41.107Z,6.97
2019-03-30T18:13:12.365Z,8.80
2019-03-30T18:15:46.058Z,10.60
2019-03-30T18:18:16.747Z,10.23
2019-03-30T18:20:48.959Z,9.63
2019-03-30T18:23:38.409Z,10.03
2019-03-30T18:26:19.034Z,8.80
2019-03-30T18:28:54.075Z,10.08
2019-03-30T18:31:37.773Z,12.15
2019-03-30T18:34:08.728Z,10.60
2019-03-30T18:36:39.835Z,9.48
2019-03-30T18:39:10.194Z,9.53
2019-03-30T18:41:39.802Z,8.43
2019-03-30T18:44:09.160Z,8.55
2019-03-30T18:46:39.505Z,11.03
2019-03-30T18:49:08.766Z,10.90
2019-03-30T18:51:40.469Z,8.18
2019-03-30T18:54:09.738Z,11.12
2019-03-30T18:56:39.262Z,9.83
2019-03-30T18:59:08.539Z,9.50
2019-03-30T19:01:37.797Z,8.38
2019-03-30T19:04:07.378Z,10.63
2019-03-30T19:06:38.011Z,11.20
2019-03-30T19:09:08.038Z,10.03
2019-03-30T19:11:37.614Z,12.53
2019-03-30T19:14:08.485Z,11.97
2019-03-30T19:16:38.007Z,9.35
2019-03-30T19:19:07.298Z,12.75
2019-03-30T19:21:36.890Z,12.73
2019-03-30T19:24:06.171Z,12.30
2019-03-30T19:26:35.715Z,11.53
2019-03-30T19:29:04.990Z,11.35
2019-03-30T19:31:34.510Z,10.60
2019-03-30T19:34:03.857Z,12.25
2019-03-30T19:36:33.119Z,13.75
2019-03-30T19:39:02.941Z,12.53
2019-03-30T19:41:33.774Z,10.23
2019-03-30T19:44:03.379Z,11.78
2019-03-30T19:46:32.682Z,14.50
2019-03-30T19:49:02.268Z,12.70
2019-03-30T19:51:34.219Z,12.25
2019-03-30T19:54:03.511Z,15.38
2019-03-30T19:56:32.759Z,11.25
2019-03-30T19:59:10.534Z,12.23
2019-03-30T20:01:33.315Z,11.53
2019-03-30T20:04:02.595Z,12.58
2019-03-30T20:06:31.858Z,9.83
2019-03-30T20:09:01.129Z,14.05
2019-03-30T20:11:32.022Z,13.20
2019-03-30T20:14:01.282Z,14.50
2019-03-30T20:16:30.547Z,16.23
2019-03-30T20:19:11.523Z,11.70
2019-03-30T20:21:31.090Z,12.05
2019-03-30T20:24:00.364Z,15.00
2019-03-30T20:26:32.636Z,17.30
2019-03-30T20:29:01.930Z,12.90
2019-03-30T20:31:31.214Z,15.53
2019-03-30T20:34:01.453Z,12.95
2019-03-30T20:36:30.738Z,12.20
2019-03-30T20:39:00.006Z,11.43
2019-03-30T20:41:29.290Z,9.83
2019-03-30T20:43:58.575Z,9.78
2019-03-30T20:46:27.850Z,12.88
2019-03-30T20:48:57.399Z,13.30
2019-03-30T20:51:26.986Z,9.88
2019-03-30T20:53:56.254Z,14.47
2019-03-30T20:56:25.530Z,15.03
2019-03-30T20:58:54.802Z,14.75
2019-03-30T21:01:24.243Z,12.33
2019-03-30T21:03:53.878Z,14.40
2019-03-30T21:06:23.180Z,13.35
2019-03-30T21:08:52.446Z,12.23
2019-03-30T21:11:21.722Z,16.75
2019-03-30T21:13:50.995Z,17.07
2019-03-30T21:16:20.274Z,13.08
2019-03-30T21:18:52.240Z,12.43
2019-03-30T21:21:23.375Z,11.73
2019-03-30T21:23:52.651Z,13.72
2019-03-30T21:26:21.926Z,10.98
2019-03-30T21:28:51.203Z,15.28
2019-03-30T21:31:20.475Z,13.55
2019-03-30T21:33:49.756Z,12.95
2019-03-30T21:36:19.358Z,14.58
2019-03-30T21:38:48.639Z,15.85
2019-03-30T21:41:19.965Z,17.70
2019-03-30T21:43:48.880Z,16.77
2019-03-30T21:46:18.406Z,14.87
2019-03-30T21:48:48.724Z,17.60
2019-03-30T21:51:18.026Z,18.87
2019-03-30T21:53:47.296Z,13.05
2019-03-30T21:56:16.591Z,13.15
2019-03-30T21:58:45.867Z,13.80
2019-03-30T22:01:15.443Z,16.93
2019-03-30T22:03:44.722Z,13.95
2019-03-30T22:06:13.986Z,12.25
2019-03-30T22:08:43.727Z,15.90
2019-03-30T22:11:13.263Z,15.10
2019-03-30T22:13:42.540Z,25.37
2019-03-30T22:16:11.817Z,18.70
2019-03-30T22:18:47.580Z,17.57
2019-03-30T22:25:01.419Z,18.60
2019-03-30T22:27:30.689Z,17.10
2019-03-30T22:29:59.960Z,15.58
2019-03-30T22:32:29.238Z,14.95
2019-03-30T22:34:58.547Z,18.77
2019-03-30T22:37:27.818Z,22.52
2019-03-30T22:39:57.090Z,27.87
2019-03-30T22:42:26.364Z,12.75
2019-03-30T22:44:55.631Z,14.50
2019-03-30T22:47:24.903Z,11.57
2019-03-30T22:49:54.178Z,13.72
2019-03-30T22:52:23.715Z,15.70
2019-03-30T22:54:52.974Z,16.23
2019-03-30T22:57:22.261Z,13.32
2019-03-30T22:59:51.512Z,12.58
2019-03-30T23:02:20.951Z,10.53
2019-03-30T23:04:50.246Z,16.00
2019-03-30T23:07:19.491Z,15.08
2019-03-30T23:09:48.763Z,10.65
2019-03-30T23:12:18.030Z,7.45
2019-03-30T23:14:48.918Z,9.90
2019-03-30T23:17:18.202Z,11.33
2019-03-30T23:19:47.466Z,14.95
2019-03-30T23:22:16.731Z,11.00
2019-03-30T23:25:41.538Z,14.07
2019-03-30T23:28:11.015Z,14.43
2019-03-30T23:30:53.597Z,10.08
2019-03-30T23:33:11.322Z,14.40
2019-03-30T23:35:40.607Z,24.02
2019-03-30T23:38:09.932Z,21.37
2019-03-30T23:40:39.201Z,19.62
2019-03-30T23:43:08.463Z,10.53
2019-03-30T23:45:37.725Z,12.63
2019-03-30T23:48:06.994Z,14.93
2019-03-30T23:50:36.259Z,17.02
2019-03-30T23:53:07.456Z,11.70
2019-03-30T23:55:36.555Z,10.78
2019-03-30T23:58:05.814Z,11.43
